Epes, AL

10:17 AM CDT on August 22, 2014 (GMT -0500)
Demopolis Municipal Airport | Change Station
CLOSE
Current Station
Airport
Location: Demopolis Municipal Airport,
Elevation: 112 ft
Nearby Weather Stations
Active Advisory: Heat Advisory

Elev 112 ft 32.46 °N, 87.95 °W | Updated 22 minutes ago

Clear
Clear
86 °F
Feels Like 92 °F
N
5
Wind Variable Wind from NNW

Today
High -- | Low -- °F
--% Chance of Precip.
Yesterday
High -- | Low -- °F
Precip. -- in
6:20 AM 7:29 PM
Waning Crescent, 8% visible
Pressure 30.13 in
Visibility 10.0 miles
Clouds Clear
Heat Index 92 °F
Dew Point 72 °F
Humidity 61%
Rainfall 0.00 in
Snow Depth Not available.
UV 6 out of 12
Pollen 8.80 out of 12
Air Quality Not available.
Flu Activity Not available.
METAR KDYA 221455Z AUTO 34004KT 10SM CLR 30/22 A3013 RMK AO2 T03030221

More Conditions Fewer Conditions

Pressure 30.13 in
Visibility 10.0 miles
Clouds Clear
Heat Index 92 °F
Dew Point 72 °F
Humidity 61%
Rainfall 0.00 in
Snow Depth Not available.
UV 6 out of 12
Pollen 8.80 out of 12
Air Quality Not available.
Flu Activity Not available.
METAR KDYA 221455Z AUTO 34004KT 10SM CLR 30/22 A3013 RMK AO2 T03030221

More Conditions Fewer Conditions

10-Day Weather Forecast

Almanac

Astronomy

Aug. 22, 2014 Rise Set
Actual Time 6:20 AM CDT 7:29 PM CDT
Civil Twilight 5:55 AM CDT 7:54 PM CDT
Nautical Twilight 5:24 AM CDT 8:25 PM CDT
Astronomical Twilight 4:53 AM CDT 8:56 PM CDT
Moon 3:47 AM CDT 5:34 PM CDT
Length of Visible Light 13h 59m
Length of Day
13h 08m
Tomorrow will be 1m 51s shorter.
Waning Crescent, 8% of the Moon is Illuminated
Today
Waning Crescent
Aug 25
New
Sep 2
First Quarter
Sep 8
Full
Sep 15
Last Quarter

Today's Extremes

State Highs State Lows

Community

WunderPhotos

Upload Photos

1,746,187 photos uploaded!

WunderBlogs® & News

Nearby

Snow Depth

Station Depth Elevation
No new snow has been reported.

Earthquake Activity

City Distance Mag. Time & Date
No recent earthquake activity has been reported nearby.
Minimum magnitude displayed is 2.5.

Coastal Water Temperatures

Place Temperature
No Stations Reporting

Nearby Weather Stations